Buoy 51940

sailwx.info

Track history (hours):
 
Tides and Currents Weather Stations Pressure Air Temp Water Temp Dewpoint Dewpoint Depression Visibility Wind Speed Wind Dir Waves Ship Positions

Drifting buoy 51940

Last reported at 2014-Jul-23 10:51 UTC. Time now 2014-Jul-23 14:03 UTC.
Position N 32°56' E 171°10'.

Water temperature 22.3 ° C

Date/timePositionNaut miles runAvg speedWind from/ knotsBaromVisibWave heightAir tempDewpointWater temp
2014-Jul-23 10:51N 32°56' E 171°10'1 1.3 22.3
2014-Jul-23 10:05N 32°57' E 171°10'0 0.0 22.3
2014-Jul-23 09:13N 32°57' E 171°10'0 4.9 22.3
2014-Jul-23 09:08N 32°57' E 171°11'1 0.7 22.3
2014-Jul-23 06:59N 32°58' E 171°10'0 0.3 22.3
2014-Jul-23 05:37N 32°58' E 171°10'0 0.2 22.3
2014-Jul-23 04:36N 32°58' E 171°11'0 0.0 22.3
2014-Jul-23 03:58N 32°58' E 171°11'114.1 22.3
2014-Jul-23 03:55N 32°58' E 171°11'0 0.1 22.3
2014-Jul-23 03:05N 32°58' E 171°11'0 0.0 22.3
2014-Jul-23 01:29N 32°58' E 171°11'0 0.0 22.2
2014-Jul-23 01:24N 32°58' E 171°11'3 1.0 22.2
2014-Jul-22 22:47N 32°59' E 171°14'2 0.4 22.1
2014-Jul-22 18:42N 33°00' E 171°15'0 0.0 22.1
2014-Jul-22 18:15N 33°00' E 171°15'1 0.8 22.1
2014-Jul-22 17:20N 33°01' E 171°16'0 1.0 22.0
2014-Jul-22 17:04N 33°01' E 171°16'0 0.0 22.0
2014-Jul-22 16:35N 33°01' E 171°16'2 2.0 22.0
2014-Jul-22 15:47N 33°03' E 171°16'0 0.0 22.0
2014-Jul-22 14:07N 33°03' E 171°16'3 0.7 22.0
2014-Jul-22 10:20N 33°05' E 171°17'0 0.0 22.1
2014-Jul-22 09:34N 33°05' E 171°17'2 0.7 22.1
2014-Jul-22 06:35N 33°06' E 171°15'0 0.4 22.2
2014-Jul-22 05:49N 33°06' E 171°15'0 0.3 22.2
2014-Jul-22 04:51N 33°06' E 171°15'0 0.0
2014-Jul-22 04:11N 33°06' E 171°15'0 0.5 22.2
2014-Jul-22 04:05N 33°06' E 171°15'1 0.4 22.2
2014-Jul-22 01:40N 33°06' E 171°16'0 3.2 22.2
2014-Jul-22 01:35N 33°06' E 171°16'5 1.9 22.2
2014-Jul-21 23:09N 33°09' E 171°21'2 0.4 22.2
2014-Jul-21 17:35N 33°11' E 171°20'0 0.0
2014-Jul-21 16:40N 33°11' E 171°20'0 0.0 22.2
2014-Jul-21 14:18N 33°11' E 171°20'3 0.6 22.3
2014-Jul-21 09:50N 33°13' E 171°19'1 1.2 22.3
2014-Jul-21 09:04N 33°14' E 171°18'1 0.3 22.3
2014-Jul-21 06:20N 33°14' E 171°17'2 0.9 22.2
2014-Jul-21 04:16N 33°16' E 171°17'0 0.0 22.1
2014-Jul-21 03:24N 33°16' E 171°17'0 0.0 22.1
2014-Jul-21 01:49N 33°16' E 171°17'230.4 22.2
2014-Jul-21 01:45N 33°18' E 171°17'3 0.7 22.2
2014-Jul-20 20:53N 33°21' E 171°16'0 0.0 22.3
2014-Jul-20 18:05N 33°21' E 171°16'3 1.6 22.3
2014-Jul-20 16:10N 33°24' E 171°15'4 2.3 22.3
2014-Jul-20 14:21N 33°28' E 171°12'0 0.0 22.3
2014-Jul-20 10:13N 33°28' E 171°12'1 1.1 22.4
2014-Jul-20 09:27N 33°28' E 171°12'110.8 22.4
2014-Jul-20 09:21N 33°29' E 171°11'2 2.4 22.4
2014-Jul-20 08:31N 33°31' E 171°09'2 0.6 22.4
2014-Jul-20 04:33N 33°33' E 171°08'2 1.1 22.5
2014-Jul-20 02:51N 33°34' E 171°06'8 3.0
2014-Jul-20 00:17N 33°41' E 171°03'0 0.0
2014-Jul-19 22:06N 33°41' E 171°03'0 0.0 21.6
2014-Jul-19 21:15N 33°41' E 171°03'6 1.4 21.5
2014-Jul-19 17:02N 33°47' E 171°01'453.3 21.5
2014-Jul-19 16:58N 33°43' E 171°03'11 1.5 21.5
2014-Jul-19 09:48N 33°54' E 170°59'121.8 21.7
2014-Jul-19 09:44N 33°55' E 170°58'0 0.0 21.7
2014-Jul-19 08:53N 33°55' E 170°58'6171.5 21.7
2014-Jul-19 08:51N 34°00' E 170°56'4 0.8 21.7
2014-Jul-19 04:32N 34°04' E 170°55'0 0.0 21.8
2014-Jul-19 02:09N 34°04' E 170°55'6 1.7 21.8
2014-Jul-18 22:32N 34°10' E 170°53'2 1.7 21.7
2014-Jul-18 21:36N 34°11' E 170°54'5 1.9 21.6
2014-Jul-18 19:09N 34°16' E 170°53'7 3.7 21.6
2014-Jul-18 17:17N 34°22' E 170°50'0 0.0 21.6
2014-Jul-18 15:39N 34°22' E 170°50'235.6 21.6
2014-Jul-18 15:35N 34°24' E 170°48'0 0.0 21.6
2014-Jul-18 14:51N 34°24' E 170°48'648.4 21.6
2014-Jul-18 14:43N 34°30' E 170°46'0 0.0 21.6
2014-Jul-18 10:55N 34°30' E 170°46'2 2.1 21.7
2014-Jul-18 10:08N 34°32' E 170°45'1 1.7 21.7
2014-Jul-18 09:16N 34°33' E 170°44'5 3.4 21.7
2014-Jul-18 07:55N 34°37' E 170°41'2 0.5 21.8
2014-Jul-18 04:57N 34°38' E 170°39'3 1.8 21.8
2014-Jul-18 03:12N 34°41' E 170°38'0 0.0 21.8
2014-Jul-18 02:21N 34°41' E 170°38'5 2.7 21.7
2014-Jul-18 00:41N 34°45' E 170°37'0 0.0 21.6
2014-Jul-17 22:50N 34°45' E 170°37'2 2.2 21.4
2014-Jul-17 21:59N 34°47' E 170°35'5 1.3 21.4
2014-Jul-17 17:59N 34°50' E 170°30'1128.1 21.3
2014-Jul-17 17:36N 34°56' E 170°19'0 0.0 21.3
2014-Jul-17 17:33N 34°56' E 170°19'0 0.0 21.3
2014-Jul-17 15:46N 34°56' E 170°19'0 0.0
2014-Jul-17 15:02N 34°56' E 170°19'0 0.0 21.4
2014-Jul-17 11:12N 34°56' E 170°19'8 1.0
2014-Jul-17 03:26N 34°59' E 170°11'1 9.6 21.6
2014-Jul-17 03:21N 34°60' E 170°10'0 0.4 21.5
2014-Jul-17 02:30N 34°60' E 170°10'2 1.4 21.5
2014-Jul-17 00:49N 35°01' E 170°08'2 2.3 21.2
2014-Jul-16 23:56N 35°01' E 170°05'0 0.0 21.1
2014-Jul-16 23:12N 35°01' E 170°05'8 1.4 21.1
2014-Jul-16 17:46N 35°04' E 169°56'1 5.0 20.9
2014-Jul-16 17:35N 35°04' E 169°56'0 0.0
2014-Jul-16 16:50N 35°04' E 169°56'1 1.6 21.0
2014-Jul-16 16:01N 35°05' E 169°54'0 0.0 21.0
2014-Jul-16 15:13N 35°05' E 169°54'856.9 21.1
2014-Jul-16 15:05N 35°05' E 169°45'0 0.0 21.1
2014-Jul-16 09:59N 35°05' E 169°45'1 1.3 21.1
2014-Jul-16 09:11N 35°05' E 169°44'5 5.5 21.1
2014-Jul-16 08:18N 35°05' E 169°38'0 0.0 21.1
2014-Jul-16 05:36N 35°05' E 169°38'0 0.0 21.1
2014-Jul-16 05:16N 35°05' E 169°38'2 2.1 21.1
2014-Jul-16 04:06N 35°05' E 169°35'0 0.1 21.1
2014-Jul-16 03:35N 35°05' E 169°35'1 1.3 21.1
2014-Jul-16 02:46N 35°05' E 169°33'0 0.0 21.1
2014-Jul-16 02:42N 35°05' E 169°33'3 1.7 21.1
2014-Jul-16 01:05N 35°05' E 169°30'482.5 21.0
2014-Jul-16 01:02N 35°05' E 169°25'2 0.5 21.0
2014-Jul-15 20:58N 35°04' E 169°23'3 1.5 21.0
2014-Jul-15 19:05N 35°05' E 169°19'2 3.1 20.9
2014-Jul-15 18:34N 35°05' E 169°17'0 0.0 20.9
2014-Jul-15 17:58N 35°05' E 169°17'4 2.4 20.9
2014-Jul-15 16:13N 35°04' E 169°12'0 0.0 20.8
2014-Jul-15 15:25N 35°04' E 169°12'637.4 20.8
2014-Jul-15 15:15N 35°04' E 169°05'0 0.0 20.8
2014-Jul-15 13:40N 35°04' E 169°05'0 0.0 20.7
2014-Jul-15 10:19N 35°04' E 169°05'2 2.3 20.6
2014-Jul-15 09:29N 35°04' E 169°03'3 2.7 20.6
2014-Jul-15 08:33N 35°03' E 168°59'3 1.1 20.6
2014-Jul-15 06:07N 35°03' E 168°56'0 0.0 20.5
2014-Jul-15 03:51N 35°03' E 168°56'110.8 20.5
2014-Jul-15 03:46N 35°03' E 168°55'2 2.1 20.5
2014-Jul-15 02:50N 35°04' E 168°53'0 0.0 20.5
2014-Jul-15 01:16N 35°04' E 168°53'0 6.9 20.5
2014-Jul-15 01:13N 35°03' E 168°53'2 1.0 20.5
2014-Jul-14 22:59N 35°03' E 168°50'3 3.2 20.4
2014-Jul-14 22:11N 35°02' E 168°47'4 4.3 20.4
2014-Jul-14 21:19N 35°02' E 168°42'1 0.4 20.4
2014-Jul-14 18:06N 35°01' E 168°41'1 4.6 20.6
2014-Jul-14 17:55N 35°01' E 168°42'1 1.3 20.6
2014-Jul-14 17:16N 35°01' E 168°41'1 1.5 20.6
2014-Jul-14 16:23N 35°02' E 168°39'452.9 20.7
2014-Jul-14 16:19N 35°01' E 168°35'0 0.0 20.7
2014-Jul-14 15:35N 35°01' E 168°35'0 0.0 20.7
2014-Jul-14 13:51N 35°01' E 168°35'4 1.3 20.7
2014-Jul-14 10:35N 34°59' E 168°31'3 3.8 20.7
2014-Jul-14 09:53N 34°57' E 168°28'1 0.8 20.8
2014-Jul-14 08:59N 34°57' E 168°28'227.0 20.8
2014-Jul-14 08:54N 34°55' E 168°26'2 0.8 20.8
2014-Jul-14 06:35N 34°55' E 168°24'0 0.0 20.9
2014-Jul-14 04:56N 34°55' E 168°24'1 0.6 20.9
2014-Jul-14 03:56N 34°55' E 168°23'2 2.3 21.0
2014-Jul-14 03:05N 34°55' E 168°21'0 0.0 20.9
2014-Jul-14 01:29N 34°55' E 168°21'0 1.6 20.9
2014-Jul-14 01:23N 34°55' E 168°21'5 1.4 20.9
2014-Jul-13 21:40N 34°54' E 168°15'5 1.5 20.8
2014-Jul-13 18:26N 34°52' E 168°10'213.2 20.7
2014-Jul-13 18:17N 34°51' E 168°08'0 0.0 20.7
2014-Jul-13 16:33N 34°51' E 168°08'781.4 20.7
2014-Jul-13 16:28N 34°46' E 168°02'0 0.0
2014-Jul-13 14:02N 34°46' E 168°02'0 0.0 20.8
2014-Jul-13 10:58N 34°46' E 168°02'   20.9
Track history (hours):
 
Tides and Currents Weather Stations Pressure Air Temp Water Temp Dewpoint Dewpoint Depression Visibility Wind Speed Wind Dir Waves Ship Positions

Drifting buoy 51940

Last reported at 2014-Jul-23 10:51 UTC. Time now 2014-Jul-23 14:03 UTC.
Position N 32°56' E 171°10'.

Water temperature 22.3 ° C

Date/timePositionNaut miles runAvg speedWind from/ knotsBaromVisibWave heightAir tempDewpointWater temp
2014-Jul-23 10:51N 32°56' E 171°10'1 1.3 22.3
2014-Jul-23 10:05N 32°57' E 171°10'0 0.0 22.3
2014-Jul-23 09:13N 32°57' E 171°10'0 4.9 22.3
2014-Jul-23 09:08N 32°57' E 171°11'1 0.7 22.3
2014-Jul-23 06:59N 32°58' E 171°10'0 0.3 22.3
2014-Jul-23 05:37N 32°58' E 171°10'0 0.2 22.3
2014-Jul-23 04:36N 32°58' E 171°11'0 0.0 22.3
2014-Jul-23 03:58N 32°58' E 171°11'114.1 22.3
2014-Jul-23 03:55N 32°58' E 171°11'0 0.1 22.3
2014-Jul-23 03:05N 32°58' E 171°11'0 0.0 22.3
2014-Jul-23 01:29N 32°58' E 171°11'0 0.0 22.2
2014-Jul-23 01:24N 32°58' E 171°11'3 1.0 22.2
2014-Jul-22 22:47N 32°59' E 171°14'2 0.4 22.1
2014-Jul-22 18:42N 33°00' E 171°15'0 0.0 22.1
2014-Jul-22 18:15N 33°00' E 171°15'1 0.8 22.1
2014-Jul-22 17:20N 33°01' E 171°16'0 1.0 22.0
2014-Jul-22 17:04N 33°01' E 171°16'0 0.0 22.0
2014-Jul-22 16:35N 33°01' E 171°16'2 2.0 22.0
2014-Jul-22 15:47N 33°03' E 171°16'0 0.0 22.0
2014-Jul-22 14:07N 33°03' E 171°16'3 0.7 22.0
2014-Jul-22 10:20N 33°05' E 171°17'0 0.0 22.1
2014-Jul-22 09:34N 33°05' E 171°17'2 0.7 22.1
2014-Jul-22 06:35N 33°06' E 171°15'0 0.4 22.2
2014-Jul-22 05:49N 33°06' E 171°15'0 0.3 22.2
2014-Jul-22 04:51N 33°06' E 171°15'0 0.0
2014-Jul-22 04:11N 33°06' E 171°15'0 0.5 22.2
2014-Jul-22 04:05N 33°06' E 171°15'1 0.4 22.2
2014-Jul-22 01:40N 33°06' E 171°16'0 3.2 22.2
2014-Jul-22 01:35N 33°06' E 171°16'5 1.9 22.2
2014-Jul-21 23:09N 33°09' E 171°21'2 0.4 22.2
2014-Jul-21 17:35N 33°11' E 171°20'0 0.0
2014-Jul-21 16:40N 33°11' E 171°20'0 0.0 22.2
2014-Jul-21 14:18N 33°11' E 171°20'3 0.6 22.3
2014-Jul-21 09:50N 33°13' E 171°19'1 1.2 22.3
2014-Jul-21 09:04N 33°14' E 171°18'1 0.3 22.3
2014-Jul-21 06:20N 33°14' E 171°17'2 0.9 22.2
2014-Jul-21 04:16N 33°16' E 171°17'0 0.0 22.1
2014-Jul-21 03:24N 33°16' E 171°17'0 0.0 22.1
2014-Jul-21 01:49N 33°16' E 171°17'230.4 22.2
2014-Jul-21 01:45N 33°18' E 171°17'3 0.7 22.2
2014-Jul-20 20:53N 33°21' E 171°16'0 0.0 22.3
2014-Jul-20 18:05N 33°21' E 171°16'3 1.6 22.3
2014-Jul-20 16:10N 33°24' E 171°15'4 2.3 22.3
2014-Jul-20 14:21N 33°28' E 171°12'0 0.0 22.3
2014-Jul-20 10:13N 33°28' E 171°12'1 1.1 22.4
2014-Jul-20 09:27N 33°28' E 171°12'110.8 22.4
2014-Jul-20 09:21N 33°29' E 171°11'2 2.4 22.4
2014-Jul-20 08:31N 33°31' E 171°09'2 0.6 22.4
2014-Jul-20 04:33N 33°33' E 171°08'2 1.1 22.5
2014-Jul-20 02:51N 33°34' E 171°06'8 3.0
2014-Jul-20 00:17N 33°41' E 171°03'0 0.0
2014-Jul-19 22:06N 33°41' E 171°03'0 0.0 21.6
2014-Jul-19 21:15N 33°41' E 171°03'6 1.4 21.5
2014-Jul-19 17:02N 33°47' E 171°01'453.3 21.5
2014-Jul-19 16:58N 33°43' E 171°03'11 1.5 21.5
2014-Jul-19 09:48N 33°54' E 170°59'121.8 21.7
2014-Jul-19 09:44N 33°55' E 170°58'0 0.0 21.7
2014-Jul-19 08:53N 33°55' E 170°58'6171.5 21.7
2014-Jul-19 08:51N 34°00' E 170°56'4 0.8 21.7
2014-Jul-19 04:32N 34°04' E 170°55'0 0.0 21.8
2014-Jul-19 02:09N 34°04' E 170°55'6 1.7 21.8
2014-Jul-18 22:32N 34°10' E 170°53'2 1.7 21.7
2014-Jul-18 21:36N 34°11' E 170°54'5 1.9 21.6
2014-Jul-18 19:09N 34°16' E 170°53'7 3.7 21.6
2014-Jul-18 17:17N 34°22' E 170°50'0 0.0 21.6
2014-Jul-18 15:39N 34°22' E 170°50'235.6 21.6
2014-Jul-18 15:35N 34°24' E 170°48'0 0.0 21.6
2014-Jul-18 14:51N 34°24' E 170°48'648.4 21.6
2014-Jul-18 14:43N 34°30' E 170°46'0 0.0 21.6
2014-Jul-18 10:55N 34°30' E 170°46'2 2.1 21.7
2014-Jul-18 10:08N 34°32' E 170°45'1 1.7 21.7
2014-Jul-18 09:16N 34°33' E 170°44'5 3.4 21.7
2014-Jul-18 07:55N 34°37' E 170°41'2 0.5 21.8
2014-Jul-18 04:57N 34°38' E 170°39'3 1.8 21.8
2014-Jul-18 03:12N 34°41' E 170°38'0 0.0 21.8
2014-Jul-18 02:21N 34°41' E 170°38'5 2.7 21.7
2014-Jul-18 00:41N 34°45' E 170°37'0 0.0 21.6
2014-Jul-17 22:50N 34°45' E 170°37'2 2.2 21.4
2014-Jul-17 21:59N 34°47' E 170°35'5 1.3 21.4
2014-Jul-17 17:59N 34°50' E 170°30'1128.1 21.3
2014-Jul-17 17:36N 34°56' E 170°19'0 0.0 21.3
2014-Jul-17 17:33N 34°56' E 170°19'0 0.0 21.3
2014-Jul-17 15:46N 34°56' E 170°19'0 0.0
2014-Jul-17 15:02N 34°56' E 170°19'0 0.0 21.4
2014-Jul-17 11:12N 34°56' E 170°19'8 1.0
2014-Jul-17 03:26N 34°59' E 170°11'1 9.6 21.6
2014-Jul-17 03:21N 34°60' E 170°10'0 0.4 21.5
2014-Jul-17 02:30N 34°60' E 170°10'2 1.4 21.5
2014-Jul-17 00:49N 35°01' E 170°08'2 2.3 21.2
2014-Jul-16 23:56N 35°01' E 170°05'0 0.0 21.1
2014-Jul-16 23:12N 35°01' E 170°05'8 1.4 21.1
2014-Jul-16 17:46N 35°04' E 169°56'1 5.0 20.9
2014-Jul-16 17:35N 35°04' E 169°56'0 0.0
2014-Jul-16 16:50N 35°04' E 169°56'1 1.6 21.0
2014-Jul-16 16:01N 35°05' E 169°54'0 0.0 21.0
2014-Jul-16 15:13N 35°05' E 169°54'856.9 21.1
2014-Jul-16 15:05N 35°05' E 169°45'0 0.0 21.1
2014-Jul-16 09:59N 35°05' E 169°45'1 1.3 21.1
2014-Jul-16 09:11N 35°05' E 169°44'5 5.5 21.1
2014-Jul-16 08:18N 35°05' E 169°38'0 0.0 21.1
2014-Jul-16 05:36N 35°05' E 169°38'0 0.0 21.1
2014-Jul-16 05:16N 35°05' E 169°38'2 2.1 21.1
2014-Jul-16 04:06N 35°05' E 169°35'0 0.1 21.1
2014-Jul-16 03:35N 35°05' E 169°35'1 1.3 21.1
2014-Jul-16 02:46N 35°05' E 169°33'0 0.0 21.1
2014-Jul-16 02:42N 35°05' E 169°33'3 1.7 21.1
2014-Jul-16 01:05N 35°05' E 169°30'482.5 21.0
2014-Jul-16 01:02N 35°05' E 169°25'2 0.5 21.0
2014-Jul-15 20:58N 35°04' E 169°23'3 1.5 21.0
2014-Jul-15 19:05N 35°05' E 169°19'2 3.1 20.9
2014-Jul-15 18:34N 35°05' E 169°17'0 0.0 20.9
2014-Jul-15 17:58N 35°05' E 169°17'4 2.4 20.9
2014-Jul-15 16:13N 35°04' E 169°12'0 0.0 20.8
2014-Jul-15 15:25N 35°04' E 169°12'637.4 20.8
2014-Jul-15 15:15N 35°04' E 169°05'0 0.0 20.8
2014-Jul-15 13:40N 35°04' E 169°05'0 0.0 20.7
2014-Jul-15 10:19N 35°04' E 169°05'2 2.3 20.6
2014-Jul-15 09:29N 35°04' E 169°03'3 2.7 20.6
2014-Jul-15 08:33N 35°03' E 168°59'3 1.1 20.6
2014-Jul-15 06:07N 35°03' E 168°56'0 0.0 20.5
2014-Jul-15 03:51N 35°03' E 168°56'110.8 20.5
2014-Jul-15 03:46N 35°03' E 168°55'2 2.1 20.5
2014-Jul-15 02:50N 35°04' E 168°53'0 0.0 20.5
2014-Jul-15 01:16N 35°04' E 168°53'0 6.9 20.5
2014-Jul-15 01:13N 35°03' E 168°53'2 1.0 20.5
2014-Jul-14 22:59N 35°03' E 168°50'3 3.2 20.4
2014-Jul-14 22:11N 35°02' E 168°47'4 4.3 20.4
2014-Jul-14 21:19N 35°02' E 168°42'1 0.4 20.4
2014-Jul-14 18:06N 35°01' E 168°41'1 4.6 20.6
2014-Jul-14 17:55N 35°01' E 168°42'1 1.3 20.6
2014-Jul-14 17:16N 35°01' E 168°41'1 1.5 20.6
2014-Jul-14 16:23N 35°02' E 168°39'452.9 20.7
2014-Jul-14 16:19N 35°01' E 168°35'0 0.0 20.7
2014-Jul-14 15:35N 35°01' E 168°35'0 0.0 20.7
2014-Jul-14 13:51N 35°01' E 168°35'4 1.3 20.7
2014-Jul-14 10:35N 34°59' E 168°31'3 3.8 20.7
2014-Jul-14 09:53N 34°57' E 168°28'1 0.8 20.8
2014-Jul-14 08:59N 34°57' E 168°28'227.0 20.8
2014-Jul-14 08:54N 34°55' E 168°26'2 0.8 20.8
2014-Jul-14 06:35N 34°55' E 168°24'0 0.0 20.9
2014-Jul-14 04:56N 34°55' E 168°24'1 0.6 20.9
2014-Jul-14 03:56N 34°55' E 168°23'2 2.3 21.0
2014-Jul-14 03:05N 34°55' E 168°21'0 0.0 20.9
2014-Jul-14 01:29N 34°55' E 168°21'0 1.6 20.9
2014-Jul-14 01:23N 34°55' E 168°21'5 1.4 20.9
2014-Jul-13 21:40N 34°54' E 168°15'5 1.5 20.8
2014-Jul-13 18:26N 34°52' E 168°10'213.2 20.7
2014-Jul-13 18:17N 34°51' E 168°08'0 0.0 20.7
2014-Jul-13 16:33N 34°51' E 168°08'781.4 20.7
2014-Jul-13 16:28N 34°46' E 168°02'0 0.0
2014-Jul-13 14:02N 34°46' E 168°02'0 0.0 20.8
2014-Jul-13 10:58N 34°46' E 168°02'   20.9

Dump ship's entire track history